createdAt,value
2018-12-10T00:00:24.915Z,570
2018-12-10T00:03:47.077Z,568
2018-12-10T00:07:09.152Z,553
2018-12-10T00:10:31.480Z,560
2018-12-10T00:13:53.570Z,556
2018-12-10T00:17:15.680Z,564
2018-12-10T00:20:38.003Z,558
2018-12-10T00:24:00.019Z,555
2018-12-10T00:27:22.436Z,554
2018-12-10T00:30:44.439Z,550
2018-12-10T00:34:06.620Z,556
2018-12-10T00:37:28.796Z,545
2018-12-10T00:40:50.888Z,546
2018-12-10T00:44:13.188Z,543
2018-12-10T00:47:35.403Z,543
2018-12-10T00:50:57.509Z,541
2018-12-10T00:54:19.659Z,538
2018-12-10T00:57:41.828Z,542
2018-12-10T01:01:04.029Z,543
2018-12-10T01:04:27.011Z,538
2018-12-10T01:07:48.310Z,536
2018-12-10T01:11:10.547Z,529
2018-12-10T01:14:32.743Z,537
2018-12-10T01:17:54.893Z,545
2018-12-10T01:21:17.142Z,521
2018-12-10T01:24:39.256Z,528
2018-12-10T01:28:01.398Z,533
2018-12-10T01:31:23.579Z,534
2018-12-10T01:34:47.216Z,529
2018-12-10T01:38:07.936Z,526
2018-12-10T01:41:30.223Z,536
2018-12-10T01:44:52.210Z,517
2018-12-10T01:48:14.494Z,521
2018-12-10T01:51:36.653Z,519
2018-12-10T01:54:58.817Z,521
2018-12-10T01:58:20.926Z,519
2018-12-10T02:01:43.173Z,523
2018-12-10T02:05:05.346Z,519
2018-12-10T02:08:27.658Z,517
2018-12-10T02:11:49.691Z,518
2018-12-10T02:15:11.875Z,512
2018-12-10T02:18:33.970Z,516
2018-12-10T02:21:56.269Z,515
2018-12-10T02:25:18.314Z,520
2018-12-10T02:28:40.608Z,521
2018-12-10T02:32:02.775Z,518
2018-12-10T02:35:24.851Z,515
2018-12-10T02:38:47.125Z,521
2018-12-10T02:42:09.368Z,512
2018-12-10T02:45:31.374Z,514
2018-12-10T02:48:53.633Z,508
2018-12-10T02:52:15.775Z,516
2018-12-10T02:55:37.907Z,512
2018-12-10T02:59:00.067Z,510
2018-12-10T03:02:22.266Z,509
2018-12-10T03:05:44.535Z,509
2018-12-10T03:09:06.665Z,506
2018-12-10T03:12:28.862Z,495
2018-12-10T03:15:51.050Z,504
2018-12-10T03:19:13.186Z,502
2018-12-10T03:22:35.370Z,500
2018-12-10T03:25:57.528Z,507
2018-12-10T03:29:19.668Z,512
2018-12-10T03:32:41.955Z,507
2018-12-10T03:36:04.159Z,508
2018-12-10T03:39:26.247Z,503
2018-12-10T03:42:48.340Z,514
2018-12-10T03:46:10.647Z,509
2018-12-10T03:49:32.757Z,502
2018-12-10T03:52:54.879Z,500
2018-12-10T03:56:17.116Z,499
2018-12-10T03:59:39.234Z,503
2018-12-10T04:03:01.571Z,502
2018-12-10T04:06:23.658Z,500
2018-12-10T04:09:45.824Z,499
2018-12-10T04:13:07.997Z,500
2018-12-10T04:19:52.277Z,494
2018-12-10T04:23:14.533Z,493
2018-12-10T04:26:36.705Z,496
2018-12-10T04:29:58.879Z,496
2018-12-10T04:33:21.079Z,486
2018-12-10T04:36:43.224Z,494
2018-12-10T04:40:05.319Z,492
2018-12-10T04:43:27.495Z,497
2018-12-10T04:46:49.666Z,495
2018-12-10T04:50:11.966Z,488
2018-12-10T04:53:34.195Z,500
2018-12-10T04:56:56.196Z,495
2018-12-10T05:00:18.560Z,489
2018-12-10T05:07:02.833Z,492
2018-12-10T05:10:25.002Z,496
2018-12-10T05:13:47.155Z,484
2018-12-10T05:17:09.327Z,480
2018-12-10T05:20:31.493Z,488
2018-12-10T05:23:53.611Z,488
2018-12-10T05:27:15.841Z,484
2018-12-10T05:30:38.032Z,487
2018-12-10T05:34:00.217Z,490
2018-12-10T05:37:22.396Z,527
2018-12-10T05:40:44.546Z,592
2018-12-10T05:44:06.732Z,587
2018-12-10T05:47:28.919Z,574
2018-12-10T05:50:51.114Z,567
2018-12-10T05:54:13.205Z,573
2018-12-10T05:57:35.372Z,580
2018-12-10T06:00:57.716Z,584
2018-12-10T06:04:19.734Z,590
2018-12-10T06:07:42.012Z,611
2018-12-10T06:11:04.134Z,644
2018-12-10T06:14:26.446Z,665
2018-12-10T06:17:48.414Z,684
2018-12-10T06:21:10.691Z,702
2018-12-10T06:24:32.786Z,713
2018-12-10T06:27:55.011Z,624
2018-12-10T06:31:17.237Z,784
2018-12-10T06:34:39.358Z,786
2018-12-10T06:38:01.525Z,834
2018-12-10T06:41:23.868Z,862
2018-12-10T06:44:45.883Z,870
2018-12-10T06:48:08.126Z,889
2018-12-10T06:51:30.148Z,884
2018-12-10T06:54:52.406Z,892
2018-12-10T06:58:14.561Z,855
2018-12-10T07:01:36.840Z,918
2018-12-10T07:04:58.919Z,903
2018-12-10T07:08:21.143Z,923
2018-12-10T07:11:43.336Z,526
2018-12-10T07:15:05.517Z,525
2018-12-10T07:18:27.668Z,376
2018-12-10T07:21:49.724Z,528
2018-12-10T07:25:11.978Z,490
2018-12-10T07:28:34.240Z,496
2018-12-10T07:31:56.459Z,503
2018-12-10T07:35:18.505Z,514
2018-12-10T07:38:40.764Z,536
2018-12-10T07:45:25.015Z,561
2018-12-10T07:48:50.149Z,559
2018-12-10T07:52:09.363Z,571
2018-12-10T07:55:31.476Z,607
2018-12-10T07:58:53.737Z,610
2018-12-10T08:02:15.951Z,601
2018-12-10T08:05:38.070Z,639
2018-12-10T08:09:00.360Z,639
2018-12-10T08:12:22.392Z,656
2018-12-10T08:15:44.586Z,625
2018-12-10T08:19:06.866Z,635
2018-12-10T08:22:28.947Z,630
2018-12-10T08:25:51.018Z,628
2018-12-10T08:29:13.279Z,632
2018-12-10T08:32:36.436Z,628
2018-12-10T08:35:57.626Z,626
2018-12-10T08:39:19.843Z,636
2018-12-10T08:42:42.077Z,637
2018-12-10T08:46:04.136Z,637
2018-12-10T08:49:26.234Z,633
2018-12-10T08:52:50.074Z,654
2018-12-10T08:56:10.655Z,644
2018-12-10T08:59:34.987Z,643
2018-12-10T09:02:55.012Z,642
2018-12-10T09:06:17.109Z,640
2018-12-10T09:09:39.404Z,644
2018-12-10T09:16:23.713Z,664
2018-12-10T09:23:08.058Z,653
2018-12-10T09:26:30.230Z,648
2018-12-10T09:29:52.406Z,647
2018-12-10T09:36:36.765Z,639
2018-12-10T09:39:58.871Z,639
2018-12-10T09:43:21.109Z,641
2018-12-10T09:46:43.208Z,635
2018-12-10T09:50:05.451Z,643
2018-12-10T09:53:27.618Z,639
2018-12-10T09:56:49.713Z,639
2018-12-10T10:00:12.078Z,641
2018-12-10T10:03:34.200Z,638
2018-12-10T10:06:56.337Z,614
2018-12-10T10:10:18.524Z,609
2018-12-10T10:13:40.750Z,637
2018-12-10T10:17:02.739Z,615
2018-12-10T10:20:25.048Z,612
2018-12-10T10:23:54.220Z,604
2018-12-10T10:27:09.438Z,600
2018-12-10T10:30:31.530Z,594
2018-12-10T10:33:53.812Z,625
2018-12-10T10:37:15.797Z,661
2018-12-10T10:40:38.110Z,689
2018-12-10T10:44:00.338Z,684
2018-12-10T10:47:22.314Z,698
2018-12-10T10:54:06.757Z,683
2018-12-10T10:57:29.024Z,689
2018-12-10T11:00:51.603Z,692
2018-12-10T11:04:13.285Z,681
2018-12-10T11:07:35.446Z,679
2018-12-10T11:14:19.814Z,665
2018-12-10T11:17:41.970Z,676
2018-12-10T11:24:26.318Z,654
2018-12-10T11:27:48.540Z,631
2018-12-10T11:31:10.957Z,630
2018-12-10T11:34:32.853Z,616
2018-12-10T11:37:54.955Z,599
2018-12-10T11:41:19.309Z,589
2018-12-10T11:44:39.441Z,578
2018-12-10T11:48:01.436Z,574
2018-12-10T11:51:23.660Z,565
2018-12-10T11:54:45.940Z,565
2018-12-10T11:58:08.060Z,563
2018-12-10T12:01:30.243Z,574
2018-12-10T12:04:52.411Z,571
2018-12-10T12:08:14.549Z,566
2018-12-10T12:11:36.864Z,582
2018-12-10T12:14:58.865Z,575
2018-12-10T12:18:21.063Z,575
2018-12-10T12:21:43.338Z,570
2018-12-10T12:25:05.405Z,572
2018-12-10T12:28:27.602Z,566
2018-12-10T12:31:49.947Z,581
2018-12-10T12:35:12.043Z,588
2018-12-10T12:38:34.153Z,591
2018-12-10T12:41:56.358Z,597
2018-12-10T12:48:40.662Z,594
2018-12-10T12:52:02.779Z,609
2018-12-10T12:55:24.913Z,609
2018-12-10T12:58:47.056Z,619
2018-12-10T13:02:09.246Z,609
2018-12-10T13:05:31.550Z,712
2018-12-10T13:08:53.585Z,709
2018-12-10T13:12:15.846Z,719
2018-12-10T13:15:38.021Z,701
2018-12-10T13:19:00.187Z,725
2018-12-10T13:22:22.385Z,718
2018-12-10T13:25:44.644Z,733
2018-12-10T13:29:06.724Z,757
2018-12-10T13:32:28.874Z,710
2018-12-10T13:35:51.063Z,709
2018-12-10T13:39:13.230Z,712
2018-12-10T13:42:35.481Z,698
2018-12-10T13:45:57.803Z,704
2018-12-10T13:49:19.728Z,701
2018-12-10T13:52:41.941Z,695
2018-12-10T13:56:04.167Z,705
2018-12-10T13:59:26.382Z,715
2018-12-10T14:02:48.404Z,702
2018-12-10T14:09:32.856Z,665
2018-12-10T14:12:54.975Z,683
2018-12-10T14:16:17.105Z,666
2018-12-10T14:19:39.304Z,651
2018-12-10T14:23:01.582Z,656
2018-12-10T14:26:23.679Z,652
2018-12-10T14:29:45.840Z,647
2018-12-10T14:33:08.089Z,654
2018-12-10T14:36:30.217Z,647
2018-12-10T14:39:52.352Z,638
2018-12-10T14:46:36.783Z,622
2018-12-10T14:49:58.879Z,622
2018-12-10T14:53:20.957Z,621
2018-12-10T14:56:43.295Z,680
2018-12-10T15:00:05.417Z,681
2018-12-10T15:06:49.798Z,712
2018-12-10T15:10:12.047Z,710
2018-12-10T15:13:34.100Z,726
2018-12-10T15:16:56.299Z,730
2018-12-10T15:20:18.557Z,769
2018-12-10T15:23:40.682Z,762
2018-12-10T15:27:02.731Z,824
2018-12-10T15:30:25.279Z,808
2018-12-10T15:33:47.198Z,877
2018-12-10T15:37:09.405Z,1258
2018-12-10T15:40:31.436Z,1345
2018-12-10T15:43:53.762Z,1723
2018-12-10T15:47:15.910Z,2024
2018-12-10T15:50:38.017Z,2243
2018-12-10T15:54:00.137Z,2350
2018-12-10T15:57:22.458Z,2542
2018-12-10T16:00:44.551Z,2363
2018-12-10T16:04:06.724Z,2011
2018-12-10T16:07:28.848Z,1792
2018-12-10T16:10:51.040Z,1590
2018-12-10T16:14:13.144Z,1418
2018-12-10T16:17:35.465Z,1219
2018-12-10T16:20:57.638Z,534
2018-12-10T16:24:19.819Z,543
2018-12-10T16:31:04.130Z,546
2018-12-10T16:34:26.346Z,567
2018-12-10T16:37:48.422Z,609
2018-12-10T16:41:10.717Z,604
2018-12-10T16:44:32.755Z,647
2018-12-10T16:47:55.042Z,643
2018-12-10T16:51:17.130Z,634
2018-12-10T16:54:39.333Z,639
2018-12-10T16:58:01.533Z,623
2018-12-10T17:01:23.544Z,613
2018-12-10T17:04:45.811Z,608
2018-12-10T17:08:07.967Z,602
2018-12-10T17:11:30.196Z,592
2018-12-10T17:14:52.291Z,585
2018-12-10T17:18:14.446Z,575
2018-12-10T17:21:36.707Z,581
2018-12-10T17:24:58.851Z,569
2018-12-10T17:28:20.954Z,567
2018-12-10T17:31:43.143Z,565
2018-12-10T17:35:05.451Z,559
2018-12-10T17:38:27.571Z,558
2018-12-10T17:41:49.722Z,550
2018-12-10T17:45:11.858Z,543
2018-12-10T17:48:34.074Z,542
2018-12-10T17:51:56.254Z,543
2018-12-10T17:55:18.418Z,550
2018-12-10T17:58:40.649Z,534
2018-12-10T18:02:02.686Z,520
2018-12-10T18:05:25.056Z,526
2018-12-10T18:08:47.033Z,524
2018-12-10T18:12:09.215Z,523
2018-12-10T18:15:31.465Z,529
2018-12-10T18:18:53.655Z,519
2018-12-10T18:22:15.855Z,523
2018-12-10T18:25:37.992Z,516
2018-12-10T18:29:01.773Z,512
2018-12-10T18:32:22.287Z,512
2018-12-10T18:35:44.584Z,511
2018-12-10T18:39:06.728Z,516
2018-12-10T18:42:28.949Z,513
2018-12-10T18:42:29.311Z,513
2018-12-10T18:45:51.099Z,498
2018-12-10T18:49:13.177Z,494
2018-12-10T18:52:35.462Z,500
2018-12-10T18:55:57.601Z,495
2018-12-10T18:59:19.762Z,495
2018-12-10T19:02:41.950Z,489
2018-12-10T19:06:04.190Z,491
2018-12-10T19:09:26.333Z,490
2018-12-10T19:12:48.502Z,494
2018-12-10T19:16:10.760Z,494
2018-12-10T19:19:32.866Z,495
2018-12-10T19:22:55.004Z,493
2018-12-10T19:26:17.299Z,491
2018-12-10T19:29:39.330Z,486
2018-12-10T19:33:01.528Z,483
2018-12-10T19:36:23.788Z,485
2018-12-10T19:39:45.998Z,481
2018-12-10T19:43:08.105Z,476
2018-12-10T19:46:30.300Z,486
2018-12-10T19:49:52.484Z,485
2018-12-10T19:53:14.574Z,478
2018-12-10T19:56:36.725Z,476
2018-12-10T19:59:58.998Z,465
2018-12-10T20:06:43.316Z,468
2018-12-10T20:10:05.484Z,466
2018-12-10T20:13:27.624Z,473
2018-12-10T20:16:49.783Z,479
2018-12-10T20:20:12.134Z,473
2018-12-10T20:23:34.141Z,482
2018-12-10T20:26:56.337Z,482
2018-12-10T20:30:18.878Z,484
2018-12-10T20:33:43.381Z,488
2018-12-10T20:37:02.833Z,499
2018-12-10T20:40:25.032Z,501
2018-12-10T20:43:47.245Z,504
2018-12-10T20:47:09.425Z,501
2018-12-10T20:50:31.552Z,501
2018-12-10T20:53:53.659Z,493
2018-12-10T20:57:16.014Z,515
2018-12-10T21:00:38.196Z,518
2018-12-10T21:04:00.268Z,509
2018-12-10T21:07:22.437Z,494
2018-12-10T21:10:44.525Z,511
2018-12-10T21:14:06.760Z,518
2018-12-10T21:17:29.011Z,567
2018-12-10T21:20:51.134Z,554
2018-12-10T21:24:13.292Z,557
2018-12-10T21:27:35.517Z,532
2018-12-10T21:30:57.677Z,549
2018-12-10T21:34:19.767Z,537
2018-12-10T21:37:42.167Z,543
2018-12-10T21:41:04.186Z,543
2018-12-10T21:44:26.561Z,546
2018-12-10T21:47:48.611Z,542
2018-12-10T21:51:10.789Z,552
2018-12-10T21:54:32.889Z,557
2018-12-10T22:01:17.329Z,552
2018-12-10T22:04:39.417Z,560
2018-12-10T22:08:01.653Z,560
2018-12-10T22:11:23.850Z,559
2018-12-10T22:14:45.962Z,559
2018-12-10T22:18:08.168Z,556
2018-12-10T22:21:30.293Z,546
2018-12-10T22:24:52.475Z,547
2018-12-10T22:28:14.726Z,548
2018-12-10T22:31:36.824Z,552
2018-12-10T22:34:58.910Z,546
2018-12-10T22:38:21.215Z,543
2018-12-10T22:41:43.409Z,551
2018-12-10T22:45:05.452Z,550
2018-12-10T22:48:27.725Z,546
2018-12-10T22:51:49.888Z,545
2018-12-10T22:55:12.069Z,539
2018-12-10T22:58:34.180Z,534
2018-12-10T23:01:56.330Z,539
2018-12-10T23:05:18.591Z,533
2018-12-10T23:08:40.841Z,531
2018-12-10T23:12:02.874Z,531
2018-12-10T23:15:25.108Z,525
2018-12-10T23:18:47.267Z,529
2018-12-10T23:25:31.550Z,531
2018-12-10T23:28:53.774Z,532
2018-12-10T23:32:15.969Z,527
2018-12-10T23:35:38.190Z,526
2018-12-10T23:39:00.315Z,520
2018-12-10T23:42:22.476Z,521
2018-12-10T23:45:44.610Z,527
2018-12-10T23:49:06.945Z,530
2018-12-10T23:52:29.018Z,529
2018-12-10T23:55:51.116Z,534
2018-12-10T23:59:13.383Z,531
